Patos — WDF6110 — position and weather

sailwx.info

Track history (hours):
 
Tides and Currents Weather Stations Pressure Air Temp Water Temp Dewpoint Dewpoint Depression Visibility Wind Speed Wind Dir Waves Ship Positions

Patos

Owner: Demelza Charters LLP, Bellingham, WA. More information available from US FCC via Universal Licensing System and Coast Guard Vessel Documentation Center.

Last reported at 2017-May-21 14:50 UTC. Time now 2017-May-26 09:31 UTC.
Position N 50°17' W 125°13'.

Length 16 m.

Type: Pleasure craft. MMSI: 367470750.

Date/timePositionNaut miles runAvg speedWind from/ knotsBaromVisibWave heightAir tempDewpointWater temp
2017-May-21 14:50N 50°17' W 125°13'5 0.2
2017-May-20 20:05N 50°20' W 125°07'1 9.5
2017-May-20 19:59N 50°19' W 125°06'4 8.8
2017-May-20 19:31N 50°16' W 125°02'5 9.2
2017-May-20 19:00N 50°12' W 124°57'4 8.8
2017-May-20 18:30N 50°09' W 124°54'4 8.9
2017-May-20 18:00N 50°04' W 124°51'5 8.6
2017-May-20 17:25N 49°60' W 124°48'4 8.7
2017-May-20 16:56N 49°57' W 124°44'4 8.9
2017-May-20 16:29N 49°54' W 124°39'  
Track history (hours):
 
Tides and Currents Weather Stations Pressure Air Temp Water Temp Dewpoint Dewpoint Depression Visibility Wind Speed Wind Dir Waves Ship Positions

Patos

Owner: Demelza Charters LLP, Bellingham, WA. More information available from US FCC via Universal Licensing System and Coast Guard Vessel Documentation Center.

Last reported at 2017-May-21 14:50 UTC. Time now 2017-May-26 09:31 UTC.
Position N 50°17' W 125°13'.

Length 16 m.

Type: Pleasure craft. MMSI: 367470750.

Date/timePositionNaut miles runAvg speedWind from/ knotsBaromVisibWave heightAir tempDewpointWater temp
2017-May-21 14:50N 50°17' W 125°13'5 0.2
2017-May-20 20:05N 50°20' W 125°07'1 9.5
2017-May-20 19:59N 50°19' W 125°06'4 8.8
2017-May-20 19:31N 50°16' W 125°02'5 9.2
2017-May-20 19:00N 50°12' W 124°57'4 8.8
2017-May-20 18:30N 50°09' W 124°54'4 8.9
2017-May-20 18:00N 50°04' W 124°51'5 8.6
2017-May-20 17:25N 49°60' W 124°48'4 8.7
2017-May-20 16:56N 49°57' W 124°44'4 8.9
2017-May-20 16:29N 49°54' W 124°39'  

Dump ship's entire track history